createdAt,value
2019-01-06T00:00:58.266Z,100884.30
2019-01-06T00:01:51.504Z,100885.10
2019-01-06T00:02:49.231Z,100883.76
2019-01-06T00:03:44.277Z,100886.98
2019-01-06T00:04:44.125Z,100882.70
2019-01-06T00:05:37.578Z,100887.02
2019-01-06T00:06:32.639Z,100885.93
2019-01-06T00:07:30.637Z,100891.84
2019-01-06T00:08:31.498Z,100887.57
2019-01-06T00:09:29.739Z,100886.22
2019-01-06T00:10:22.859Z,100896.97
2019-01-06T00:11:26.900Z,100891.86
2019-01-06T00:12:40.054Z,100895.89
2019-01-06T00:13:35.148Z,100892.66
2019-01-06T00:14:28.635Z,100897.23
2019-01-06T00:15:35.503Z,100900.48
2019-01-06T00:16:28.869Z,100900.47
2019-01-06T00:17:22.247Z,100906.11
2019-01-06T00:18:15.212Z,100903.41
2019-01-06T00:19:08.614Z,100901.79
2019-01-06T00:20:02.067Z,100906.09
2019-01-06T00:20:55.571Z,100909.31
2019-01-06T00:21:48.676Z,100906.08
2019-01-06T00:23:01.465Z,100911.46
2019-01-06T00:23:54.617Z,100904.19
2019-01-06T00:24:55.485Z,100910.40
2019-01-06T00:26:02.149Z,100911.72
2019-01-06T00:26:57.187Z,100915.48
2019-01-06T00:27:55.204Z,100912.23
2019-01-06T00:28:55.885Z,100918.41
2019-01-06T00:29:53.561Z,100920.88
2019-01-06T00:30:47.419Z,100920.05
2019-01-06T00:31:42.988Z,100921.37
2019-01-06T00:32:41.455Z,100919.48
2019-01-06T00:33:32.972Z,100919.45
2019-01-06T00:34:37.212Z,100917.05
2019-01-06T00:35:30.682Z,100923.21
2019-01-06T00:36:25.282Z,100920.48
2019-01-06T00:37:20.454Z,100926.38
2019-01-06T00:38:18.257Z,100920.98
2019-01-06T00:39:05.096Z,100928.23
2019-01-06T00:40:00.208Z,100923.89
2019-01-06T00:40:53.438Z,100917.92
2019-01-06T00:41:48.691Z,100925.22
2019-01-06T00:42:46.201Z,100923.55
2019-01-06T00:43:39.327Z,100932.42
2019-01-06T00:44:31.235Z,100929.97
2019-01-06T00:45:24.710Z,100932.13
2019-01-06T00:46:31.917Z,100930.78
2019-01-06T00:47:26.924Z,100932.93
2019-01-06T00:48:23.521Z,100931.04
2019-01-06T00:49:16.753Z,100933.73
2019-01-06T00:50:10.015Z,100939.65
2019-01-06T00:51:03.417Z,100944.23
2019-01-06T00:51:56.944Z,100940.73
2019-01-06T00:53:10.152Z,100936.95
2019-01-06T00:54:04.291Z,100943.16
2019-01-06T00:55:17.459Z,100944.23
2019-01-06T00:56:12.533Z,100945.84
2019-01-06T00:57:16.409Z,100946.66
2019-01-06T00:58:14.350Z,100950.95
2019-01-06T00:59:15.741Z,100951.52
2019-01-06T01:00:08.983Z,100951.52
2019-01-06T01:01:09.910Z,100949.89
2019-01-06T01:02:03.258Z,100957.95
2019-01-06T01:03:16.425Z,100954.17
2019-01-06T01:04:09.739Z,100956.31
2019-01-06T01:05:07.467Z,100956.83
2019-01-06T01:06:00.634Z,100957.36
2019-01-06T01:06:58.351Z,100955.19
2019-01-06T01:07:48.422Z,100951.66
2019-01-06T01:08:43.567Z,100957.31
2019-01-06T01:09:57.451Z,100959.19
2019-01-06T01:10:50.678Z,100961.60
2019-01-06T01:11:48.836Z,100968.62
2019-01-06T01:12:55.645Z,100957.81
2019-01-06T01:13:56.734Z,100963.73
2019-01-06T01:15:04.006Z,100960.47
2019-01-06T01:16:02.010Z,100969.91
2019-01-06T01:17:00.028Z,100972.31
2019-01-06T01:17:52.974Z,100967.17
2019-01-06T01:18:46.168Z,100966.06
2019-01-06T01:19:39.443Z,100965.78
2019-01-06T01:20:34.386Z,100964.98
2019-01-06T01:21:47.287Z,100971.16
2019-01-06T01:22:48.431Z,100967.09
2019-01-06T01:23:41.745Z,100971.92
2019-01-06T01:24:42.895Z,100969.20
2019-01-06T01:25:35.210Z,100974.86
2019-01-06T01:26:26.783Z,100975.38
2019-01-06T01:27:21.772Z,100974.00
2019-01-06T01:28:22.527Z,100971.02
2019-01-06T01:29:17.519Z,100971.54
2019-01-06T01:30:12.533Z,100969.66
2019-01-06T01:31:13.354Z,100973.95
2019-01-06T01:32:05.350Z,100970.69
2019-01-06T01:33:04.543Z,100967.45
2019-01-06T01:34:15.062Z,100974.17
2019-01-06T01:35:08.495Z,100970.64
2019-01-06T01:36:01.794Z,100967.66
2019-01-06T01:37:02.938Z,100971.42
2019-01-06T01:37:56.317Z,100970.61
2019-01-06T01:38:49.528Z,100973.31
2019-01-06T01:39:50.355Z,100979.23
2019-01-06T01:40:40.755Z,100982.73
2019-01-06T01:41:35.861Z,100978.69
2019-01-06T01:42:30.888Z,100977.59
2019-01-06T01:43:24.207Z,100980.81
2019-01-06T01:44:25.137Z,100976.48
2019-01-06T01:45:35.058Z,100977.83
2019-01-06T01:46:46.186Z,100977.29
2019-01-06T01:47:47.353Z,100980.48
2019-01-06T01:48:48.098Z,100983.95
2019-01-06T01:49:42.304Z,100992.80
2019-01-06T01:50:55.566Z,100992.80
2019-01-06T01:51:56.573Z,100983.33
2019-01-06T01:53:06.761Z,100985.73
2019-01-06T01:54:04.731Z,100984.64
2019-01-06T01:55:12.021Z,100984.91
2019-01-06T01:56:10.555Z,100984.62
2019-01-06T01:57:17.080Z,100982.69
2019-01-06T01:58:10.490Z,100980.77
2019-01-06T01:59:17.280Z,100985.59
2019-01-06T02:00:10.618Z,100989.36
2019-01-06T02:01:05.206Z,100990.90
2019-01-06T02:01:59.364Z,100994.66
2019-01-06T02:03:12.152Z,100990.80
2019-01-06T02:04:00.619Z,100985.14
2019-01-06T02:05:13.532Z,100986.94
2019-01-06T02:06:06.839Z,100987.97
2019-01-06T02:06:56.188Z,100982.31
2019-01-06T02:07:59.008Z,100983.55
2019-01-06T02:09:12.069Z,100983.55
2019-01-06T02:10:25.238Z,100980.06
2019-01-06T02:11:20.258Z,100971.34
2019-01-06T02:12:33.314Z,100979.28
2019-01-06T02:13:27.062Z,100979.28
2019-01-06T02:14:27.710Z,100985.84
2019-01-06T02:15:34.888Z,100985.84
2019-01-06T02:16:28.419Z,100992.10
2019-01-06T02:17:22.555Z,100997.59
2019-01-06T02:18:15.701Z,100994.64
2019-01-06T02:19:13.508Z,100994.59
2019-01-06T02:20:06.843Z,100994.59
2019-01-06T02:21:02.063Z,100996.14
2019-01-06T02:22:00.215Z,100995.91
2019-01-06T02:23:07.053Z,101000.06
2019-01-06T02:23:55.919Z,101000.06
2019-01-06T02:24:50.781Z,101004.70
2019-01-06T02:25:51.469Z,100999.47
2019-01-06T02:26:48.936Z,100994.55
2019-01-06T02:27:42.183Z,100989.78
2019-01-06T02:28:43.002Z,100989.78
2019-01-06T02:29:36.776Z,100984.73
2019-01-06T02:30:29.881Z,100997.71
2019-01-06T02:31:37.925Z,100999.42
2019-01-06T02:32:38.927Z,101002.03
2019-01-06T02:33:39.891Z,100993.20
2019-01-06T02:34:40.676Z,100996.05
2019-01-06T02:35:41.637Z,100987.37
2019-01-06T02:36:34.854Z,100991.20
2019-01-06T02:37:32.598Z,100989.17
2019-01-06T02:38:24.410Z,100987.71
2019-01-06T02:39:25.154Z,100988.88
2019-01-06T02:40:32.097Z,100988.88
2019-01-06T02:41:25.123Z,100984.72
2019-01-06T02:42:18.687Z,100986.27
2019-01-06T02:43:31.799Z,100987.92
2019-01-06T02:44:29.662Z,100990.52
2019-01-06T02:45:24.977Z,100991.42
2019-01-06T02:46:28.690Z,100989.94
2019-01-06T02:47:29.481Z,100990.13
2019-01-06T02:48:22.957Z,100996.11
2019-01-06T02:49:23.588Z,100987.78
2019-01-06T02:50:12.046Z,100987.67
2019-01-06T02:51:19.195Z,100985.61
2019-01-06T02:52:12.565Z,100987.98
2019-01-06T02:53:07.616Z,100987.02
2019-01-06T02:54:14.529Z,100986.08
2019-01-06T02:55:08.025Z,100986.45
2019-01-06T02:56:01.555Z,100987.11
2019-01-06T02:56:56.662Z,100990.20
2019-01-06T02:57:49.827Z,100990.33
2019-01-06T02:58:42.856Z,100992.64
2019-01-06T02:59:40.730Z,100988.14
2019-01-06T03:00:47.821Z,100987.67
2019-01-06T03:01:41.347Z,100988.25
2019-01-06T03:02:36.371Z,100978.06
2019-01-06T03:03:37.907Z,100980.34
2019-01-06T03:04:44.031Z,100984.73
2019-01-06T03:05:37.381Z,100983.73
2019-01-06T03:06:30.371Z,100982.55
2019-01-06T03:07:23.675Z,100983.23
2019-01-06T03:08:21.365Z,100978.81
2019-01-06T03:09:16.392Z,100985.11
2019-01-06T03:10:09.341Z,100979.61
2019-01-06T03:11:04.436Z,100983.48
2019-01-06T03:11:57.383Z,100978.30
2019-01-06T03:13:07.224Z,100980.41
2019-01-06T03:14:04.910Z,100981.91
2019-01-06T03:14:58.166Z,100983.67
2019-01-06T03:15:52.817Z,100987.32
2019-01-06T03:16:56.808Z,100982.75
2019-01-06T03:17:54.658Z,100978.98
2019-01-06T03:18:47.226Z,100980.14
2019-01-06T03:19:31.430Z,100981.77
2019-01-06T03:20:41.768Z,100979.27
2019-01-06T03:21:45.791Z,100982.60
2019-01-06T03:22:50.301Z,100977.27
2019-01-06T03:23:43.479Z,100977.91
2019-01-06T03:24:36.877Z,100980.28
2019-01-06T03:25:40.794Z,100979.06
2019-01-06T03:26:38.976Z,100975.09
2019-01-06T03:27:46.064Z,100972.41
2019-01-06T03:28:36.886Z,100972.73
2019-01-06T03:29:28.174Z,100972.41
2019-01-06T03:30:21.382Z,100964.83
2019-01-06T03:31:19.086Z,100967.53
2019-01-06T03:32:16.616Z,100972.94
2019-01-06T03:33:10.178Z,100968.55
2019-01-06T03:34:03.713Z,100965.90
2019-01-06T03:35:04.513Z,100966.18
2019-01-06T03:36:14.341Z,100965.23
2019-01-06T03:37:07.430Z,100962.86
2019-01-06T03:38:05.382Z,100959.10
2019-01-06T03:38:59.161Z,100962.62
2019-01-06T03:39:52.632Z,100960.14
2019-01-06T03:40:45.739Z,100956.00
2019-01-06T03:41:38.977Z,100954.56
2019-01-06T03:42:49.487Z,100954.08
2019-01-06T03:43:47.417Z,100959.52
2019-01-06T03:44:54.275Z,100962.72
2019-01-06T03:46:01.967Z,100955.05
2019-01-06T03:47:00.247Z,100957.53
2019-01-06T03:47:49.173Z,100949.67
2019-01-06T03:48:42.435Z,100957.12
2019-01-06T03:49:46.108Z,100948.90
2019-01-06T03:50:39.446Z,100956.10
2019-01-06T03:51:46.479Z,100957.88
2019-01-06T03:52:39.577Z,100951.97
2019-01-06T03:53:33.011Z,100950.97
2019-01-06T03:54:26.394Z,100947.61
2019-01-06T03:55:21.425Z,100943.94
2019-01-06T03:56:22.572Z,100950.97
2019-01-06T03:57:23.426Z,100953.21
2019-01-06T03:58:18.424Z,100958.05
2019-01-06T03:59:11.471Z,100949.67
2019-01-06T04:00:00.950Z,100950.67
2019-01-06T04:01:04.109Z,100954.02
2019-01-06T04:02:08.111Z,100950.91
2019-01-06T04:02:54.531Z,100951.30
2019-01-06T04:03:55.392Z,100946.89
2019-01-06T04:04:45.767Z,100949.12
2019-01-06T04:05:39.469Z,100945.78
2019-01-06T04:06:37.348Z,100946.80
2019-01-06T04:07:35.219Z,100946.41
2019-01-06T04:08:42.555Z,100941.86
2019-01-06T04:09:43.251Z,100946.31
2019-01-06T04:10:36.347Z,100944.30
2019-01-06T04:11:33.992Z,100943.53
2019-01-06T04:12:27.355Z,100944.09
2019-01-06T04:13:20.878Z,100941.98
2019-01-06T04:14:14.245Z,100942.49
2019-01-06T04:15:09.241Z,100941.13
2019-01-06T04:16:16.286Z,100942.98
2019-01-06T04:17:09.805Z,100941.38
2019-01-06T04:18:07.434Z,100939.38
2019-01-06T04:19:08.497Z,100936.32
2019-01-06T04:20:12.112Z,100938.06
2019-01-06T04:21:19.098Z,100931.23
2019-01-06T04:22:17.088Z,100934.88
2019-01-06T04:23:10.263Z,100936.19
2019-01-06T04:24:17.212Z,100927.92
2019-01-06T04:25:27.222Z,100927.53
2019-01-06T04:26:20.735Z,100925.45
2019-01-06T04:27:27.623Z,100921.97
2019-01-06T04:28:40.608Z,100924.78
2019-01-06T04:29:49.413Z,100926.29
2019-01-06T04:30:49.741Z,100918.94
2019-01-06T04:31:44.746Z,100914.78
2019-01-06T04:32:48.661Z,100914.58
2019-01-06T04:33:50.178Z,100910.30
2019-01-06T04:34:51.402Z,100909.82
2019-01-06T04:35:43.819Z,100904.73
2019-01-06T04:36:41.405Z,100902.17
2019-01-06T04:37:34.659Z,100903.38
2019-01-06T04:38:35.648Z,100902.25
2019-01-06T04:39:29.134Z,100898.60
2019-01-06T04:40:33.007Z,100895.16
2019-01-06T04:41:42.722Z,100896.91
2019-01-06T04:42:55.654Z,100902.27
2019-01-06T04:43:53.582Z,100892.69
2019-01-06T04:45:00.461Z,100897.44
2019-01-06T04:45:58.387Z,100883.98
2019-01-06T04:46:53.273Z,100889.10
2019-01-06T04:47:48.294Z,100890.94
2019-01-06T04:48:53.854Z,100887.09
2019-01-06T04:49:43.784Z,100885.09
2019-01-06T04:50:34.337Z,100887.81
2019-01-06T04:51:27.376Z,100882.19
2019-01-06T04:52:25.335Z,100879.94
2019-01-06T04:53:25.091Z,100878.34
2019-01-06T04:54:26.322Z,100876.61
2019-01-06T04:55:19.511Z,100875.95
2019-01-06T04:56:13.036Z,100877.31
2019-01-06T04:57:08.084Z,100870.98
2019-01-06T04:58:12.123Z,100877.14
2019-01-06T04:59:09.784Z,100872.73
2019-01-06T05:00:02.989Z,100871.28
2019-01-06T05:01:03.829Z,100871.75
2019-01-06T05:01:58.855Z,100869.50
2019-01-06T05:03:08.625Z,100869.98
2019-01-06T05:04:12.283Z,100867.99
2019-01-06T05:05:13.216Z,100865.12
2019-01-06T05:06:06.358Z,100865.83
2019-01-06T05:07:04.139Z,100865.83
2019-01-06T05:07:57.456Z,100860.77
2019-01-06T05:09:01.768Z,100864.70
2019-01-06T05:09:55.643Z,100870.20
2019-01-06T05:10:48.823Z,100866.97
2019-01-06T05:11:42.272Z,100865.78
2019-01-06T05:12:45.976Z,100862.02
2019-01-06T05:13:40.066Z,100859.83
2019-01-06T05:14:40.522Z,100861.59
2019-01-06T05:15:38.128Z,100849.01
2019-01-06T05:16:38.941Z,100845.16
2019-01-06T05:17:32.479Z,100843.70
2019-01-06T05:18:42.441Z,100844.17
2019-01-06T05:19:35.611Z,100841.34
2019-01-06T05:20:28.787Z,100839.33
2019-01-06T05:21:22.017Z,100836.83
2019-01-06T05:22:15.768Z,100839.87
2019-01-06T05:23:09.547Z,100833.87
2019-01-06T05:24:02.881Z,100834.39
2019-01-06T05:25:00.511Z,100835.62
2019-01-06T05:25:55.561Z,100832.70
2019-01-06T05:26:48.804Z,100829.59
2019-01-06T05:27:42.185Z,100828.40
2019-01-06T05:28:34.956Z,100822.59
2019-01-06T05:29:36.195Z,100823.85
2019-01-06T05:30:43.177Z,100826.38
2019-01-06T05:31:36.620Z,100822.45
2019-01-06T05:32:31.700Z,100824.65
2019-01-06T05:33:35.755Z,100823.52
2019-01-06T05:34:48.766Z,100822.62
2019-01-06T05:35:46.466Z,100816.73
2019-01-06T05:36:41.106Z,100818.33
2019-01-06T05:37:33.258Z,100815.89
2019-01-06T05:38:34.143Z,100802.61
2019-01-06T05:39:26.052Z,100803.47
2019-01-06T05:40:26.695Z,100811.67
2019-01-06T05:41:21.843Z,100800.09
2019-01-06T05:42:15.588Z,100803.20
2019-01-06T05:43:09.723Z,100800.95
2019-01-06T05:44:20.266Z,100801.41
2019-01-06T05:45:13.843Z,100808.12
2019-01-06T05:46:07.403Z,100802.11
2019-01-06T05:47:18.518Z,100800.52
2019-01-06T05:48:25.742Z,100795.16
2019-01-06T05:49:23.901Z,100798.88
2019-01-06T05:50:15.283Z,100799.61
2019-01-06T05:51:01.033Z,100791.48
2019-01-06T05:52:11.512Z,100790.16
2019-01-06T05:53:18.547Z,100793.32
2019-01-06T05:54:16.722Z,100779.86
2019-01-06T05:55:09.865Z,100779.47
2019-01-06T05:56:05.059Z,100774.79
2019-01-06T05:57:12.471Z,100781.14
2019-01-06T05:58:08.428Z,100774.23
2019-01-06T05:59:01.713Z,100776.28
2019-01-06T06:00:02.724Z,100771.69
2019-01-06T06:01:00.529Z,100774.91
2019-01-06T06:02:01.579Z,100769.19
2019-01-06T06:02:51.075Z,100770.50
2019-01-06T06:03:55.149Z,100772.05
2019-01-06T06:04:56.026Z,100772.42
2019-01-06T06:05:49.373Z,100765.23
2019-01-06T06:06:42.725Z,100758.84
2019-01-06T06:07:36.269Z,100766.22
2019-01-06T06:08:29.328Z,100761.43
2019-01-06T06:09:33.509Z,100759.83
2019-01-06T06:10:40.393Z,100758.42
2019-01-06T06:11:38.188Z,100756.42
2019-01-06T06:12:31.755Z,100752.19
2019-01-06T06:13:21.126Z,100748.11
2019-01-06T06:14:16.149Z,100753.17
2019-01-06T06:15:23.234Z,100761.66
2019-01-06T06:16:23.787Z,100755.28
2019-01-06T06:17:24.190Z,100750.55
2019-01-06T06:18:37.602Z,100751.76
2019-01-06T06:19:47.488Z,100753.59
2019-01-06T06:20:57.330Z,100751.28
2019-01-06T06:21:52.404Z,100747.91
2019-01-06T06:22:50.869Z,100749.04
2019-01-06T06:23:49.362Z,100744.81
2019-01-06T06:24:43.572Z,100740.91
2019-01-06T06:25:36.931Z,100744.24
2019-01-06T06:26:31.897Z,100742.41
2019-01-06T06:27:20.982Z,100737.30
2019-01-06T06:28:12.752Z,100738.74
2019-01-06T06:29:17.958Z,100743.06
2019-01-06T06:30:11.055Z,100739.22
2019-01-06T06:31:21.530Z,100733.54
2019-01-06T06:32:16.491Z,100726.67
2019-01-06T06:33:09.787Z,100729.40
2019-01-06T06:34:04.731Z,100728.59
2019-01-06T06:34:57.656Z,100730.76
2019-01-06T06:35:55.631Z,100726.77
2019-01-06T06:36:48.755Z,100726.77
2019-01-06T06:37:46.592Z,100721.65
2019-01-06T06:38:41.109Z,100725.49
2019-01-06T06:39:30.019Z,100720.14
2019-01-06T06:40:23.439Z,100722.06
2019-01-06T06:41:33.415Z,100717.71
2019-01-06T06:42:28.970Z,100712.04
2019-01-06T06:43:26.583Z,100712.27
2019-01-06T06:44:33.747Z,100714.70
2019-01-06T06:45:27.427Z,100711.19
2019-01-06T06:46:19.237Z,100699.18
2019-01-06T06:47:16.807Z,100702.14
2019-01-06T06:48:11.884Z,100702.14
2019-01-06T06:49:09.524Z,100703.59
2019-01-06T06:50:02.829Z,100699.56
2019-01-06T06:51:09.568Z,100699.02
2019-01-06T06:52:19.807Z,100691.98
2019-01-06T06:53:18.781Z,100692.61
2019-01-06T06:54:25.006Z,100686.70
2019-01-06T06:55:28.838Z,100682.14
2019-01-06T06:56:22.426Z,100681.43
2019-01-06T06:57:51.960Z,100677.35
2019-01-06T06:58:58.551Z,100673.89
2019-01-06T06:59:51.923Z,100675.48
2019-01-06T07:00:56.641Z,100668.31
2019-01-06T07:02:27.933Z,100672.22
2019-01-06T07:03:46.638Z,100659.37
2019-01-06T07:04:40.600Z,100655.59
2019-01-06T07:05:35.589Z,100646.72
2019-01-06T07:06:26.650Z,100649.59
2019-01-06T07:07:21.730Z,100645.98
2019-01-06T07:08:31.308Z,100638.85
2019-01-06T07:09:32.295Z,100641.25
2019-01-06T07:10:45.594Z,100638.05
2019-01-06T07:11:38.926Z,100639.09
2019-01-06T07:12:45.600Z,100636.98
2019-01-06T07:13:49.513Z,100633.84
2019-01-06T07:14:53.803Z,100633.84
2019-01-06T07:15:57.612Z,100628.17
2019-01-06T07:17:24.939Z,100634.08
2019-01-06T07:18:25.858Z,100636.09
2019-01-06T07:19:26.934Z,100630.66
2019-01-06T07:20:22.273Z,100636.75
2019-01-06T07:21:20.208Z,100636.69
2019-01-06T07:22:26.966Z,100634.21
2019-01-06T07:23:20.358Z,100630.37
2019-01-06T07:24:13.413Z,100634.45
2019-01-06T07:25:14.273Z,100636.75
2019-01-06T07:26:07.475Z,100631.55
2019-01-06T07:27:00.896Z,100634.36
2019-01-06T07:28:01.611Z,100634.36
2019-01-06T07:28:58.278Z,100631.16
2019-01-06T07:29:51.238Z,100632.67
2019-01-06T07:30:44.299Z,100626.47
2019-01-06T07:31:51.802Z,100631.91
2019-01-06T07:32:55.686Z,100631.02
2019-01-06T07:34:02.554Z,100629.24
2019-01-06T07:34:55.695Z,100631.08
2019-01-06T07:36:08.831Z,100628.17
2019-01-06T07:37:02.096Z,100630.47
2019-01-06T07:38:00.284Z,100629.84
2019-01-06T07:39:10.118Z,100627.83
2019-01-06T07:40:03.515Z,100633.27
2019-01-06T07:40:56.643Z,100630.59
2019-01-06T07:41:54.599Z,100627.22
2019-01-06T07:42:49.452Z,100623.37
2019-01-06T07:43:53.592Z,100623.64
2019-01-06T07:44:48.741Z,100615.21
2019-01-06T07:45:51.953Z,100614.91
2019-01-06T07:46:45.673Z,100613.28
2019-01-06T07:47:39.225Z,100612.66
2019-01-06T07:48:40.213Z,100607.84
2019-01-06T07:49:33.375Z,100610.19
2019-01-06T07:50:28.422Z,100602.50
2019-01-06T07:51:23.433Z,100603.63
2019-01-06T07:52:18.498Z,100607.38
2019-01-06T07:53:12.194Z,100602.50
2019-01-06T07:54:15.800Z,100603.86
2019-01-06T07:55:19.591Z,100599.85
2019-01-06T07:56:14.732Z,100606.06
2019-01-06T07:57:08.317Z,100601.12
2019-01-06T07:57:56.861Z,100596.84
2019-01-06T07:58:51.853Z,100593.96
2019-01-06T07:59:47.024Z,100597.95
2019-01-06T08:00:44.653Z,100596.72
2019-01-06T08:01:39.687Z,100593.23
2019-01-06T08:02:40.464Z,100587.33
2019-01-06T08:03:35.022Z,100592.41
2019-01-06T08:04:44.742Z,100595.12
2019-01-06T08:05:38.111Z,100592.17
2019-01-06T08:06:31.752Z,100588.98
2019-01-06T08:07:36.941Z,100595.79
2019-01-06T08:08:30.254Z,100594.66
2019-01-06T08:09:25.251Z,100593.06
2019-01-06T08:10:26.040Z,100590.58
2019-01-06T08:11:10.074Z,100588.19
2019-01-06T08:12:05.222Z,100585.13
2019-01-06T08:12:54.953Z,100580.81
2019-01-06T08:13:49.939Z,100581.95
2019-01-06T08:14:59.112Z,100576.50
2019-01-06T08:15:46.995Z,100575.23
2019-01-06T08:16:53.714Z,100576.03
2019-01-06T08:17:57.122Z,100574.91
2019-01-06T08:18:52.715Z,100578.42
2019-01-06T08:19:49.293Z,100578.98
2019-01-06T08:20:59.013Z,100576.50
2019-01-06T08:22:11.756Z,100578.42
2019-01-06T08:23:09.342Z,100583.41
2019-01-06T08:24:02.659Z,100579.39
2019-01-06T08:25:00.246Z,100575.64
2019-01-06T08:26:13.303Z,100580.85
2019-01-06T08:27:11.061Z,100581.41
2019-01-06T08:28:06.059Z,100582.31
2019-01-06T08:29:13.214Z,100577.06
2019-01-06T08:30:20.038Z,100583.40
2019-01-06T08:31:13.210Z,100580.41
2019-01-06T08:32:10.840Z,100582.50
2019-01-06T08:33:04.458Z,100579.21
2019-01-06T08:34:02.251Z,100584.42
2019-01-06T08:35:03.582Z,100586.08
2019-01-06T08:36:13.750Z,100582.89
2019-01-06T08:37:07.102Z,100586.41
2019-01-06T08:38:00.416Z,100575.06
2019-01-06T08:38:53.738Z,100579.84
2019-01-06T08:39:57.685Z,100575.20
2019-01-06T08:40:51.766Z,100576.66
2019-01-06T08:41:56.095Z,100574.83
2019-01-06T08:42:51.137Z,100580.22
2019-01-06T08:43:54.191Z,100577.98
2019-01-06T08:44:47.761Z,100581.77
2019-01-06T08:45:41.101Z,100574.97
2019-01-06T08:46:39.129Z,100574.70
2019-01-06T08:47:44.259Z,100572.25
2019-01-06T08:48:57.423Z,100568.64
2019-01-06T08:49:56.537Z,100564.56
2019-01-06T08:51:06.910Z,100567.75
2019-01-06T08:52:04.598Z,100564.13
2019-01-06T08:53:05.665Z,100568.36
2019-01-06T08:54:18.894Z,100568.02
2019-01-06T08:55:22.761Z,100569.62
2019-01-06T08:56:17.830Z,100573.38
2019-01-06T08:57:24.724Z,100571.45
2019-01-06T08:58:25.752Z,100574.73
2019-01-06T08:59:26.531Z,100577.45
2019-01-06T09:00:19.871Z,100573.23
2019-01-06T09:01:14.910Z,100575.95
2019-01-06T09:02:18.703Z,100574.59
2019-01-06T09:03:16.230Z,100579.56
2019-01-06T09:04:09.595Z,100571.64
2019-01-06T09:05:13.587Z,100576.98
2019-01-06T09:06:14.341Z,100574.59
2019-01-06T09:07:18.756Z,100571.64
2019-01-06T09:08:31.662Z,100572.53
2019-01-06T09:09:26.544Z,100574.45
2019-01-06T09:10:18.269Z,100572.06
2019-01-06T09:11:25.115Z,100573.66
2019-01-06T09:12:43.250Z,100577.73
2019-01-06T09:13:41.546Z,100575.91
2019-01-06T09:14:40.660Z,100578.06
2019-01-06T09:15:44.798Z,100580.55
2019-01-06T09:16:38.172Z,100581.45
2019-01-06T09:17:31.539Z,100577.69
2019-01-06T09:18:44.589Z,100578.79
2019-01-06T09:19:49.988Z,100579.61
2019-01-06T09:20:41.756Z,100578.79
2019-01-06T09:21:45.464Z,100582.34
2019-01-06T09:22:49.479Z,100579.61
2019-01-06T09:23:56.576Z,100585.36
2019-01-06T09:25:06.421Z,100588.31
2019-01-06T09:25:59.790Z,100588.64
2019-01-06T09:26:53.413Z,100586.25
2019-01-06T09:27:46.635Z,100594.97
2019-01-06T09:28:41.851Z,100593.05
2019-01-06T09:29:55.081Z,100592.02
2019-01-06T09:30:56.015Z,100587.38
2019-01-06T09:32:02.222Z,100590.09
2019-01-06T09:33:02.811Z,100586.25
2019-01-06T09:34:01.401Z,100584.41
2019-01-06T09:34:59.067Z,100584.41
2019-01-06T09:35:52.203Z,100585.54
2019-01-06T09:36:55.893Z,100587.47
2019-01-06T09:37:49.038Z,100590.98
2019-01-06T09:38:47.287Z,100586.66
2019-01-06T09:39:42.301Z,100593.47
2019-01-06T09:40:55.256Z,100595.48
2019-01-06T09:42:08.212Z,100597.73
2019-01-06T09:43:12.143Z,100594.07
2019-01-06T09:44:09.814Z,100591.12
2019-01-06T09:44:58.502Z,100593.37
2019-01-06T09:45:50.846Z,100594.25
2019-01-06T09:46:48.438Z,100595.05
2019-01-06T09:47:36.369Z,100598.57
2019-01-06T09:48:46.183Z,100598.80
2019-01-06T09:49:47.054Z,100592.89
2019-01-06T09:50:50.605Z,100599.98
2019-01-06T09:51:51.714Z,100599.70
2019-01-06T09:52:52.950Z,100600.55
2019-01-06T09:53:46.143Z,100599.52
2019-01-06T09:54:47.671Z,100594.88
2019-01-06T09:55:40.825Z,100593.98
2019-01-06T09:56:34.051Z,100604.62
2019-01-06T09:57:41.067Z,100598.16
2019-01-06T09:58:36.133Z,100601.67
2019-01-06T09:59:31.205Z,100609.59
2019-01-06T10:00:29.466Z,100601.44
2019-01-06T10:01:33.852Z,100605.94
2019-01-06T10:02:28.930Z,100600.50
2019-01-06T10:03:26.702Z,100600.73
2019-01-06T10:04:21.765Z,100595.06
2019-01-06T10:05:11.339Z,100595.95
2019-01-06T10:06:04.808Z,100604.34
2019-01-06T10:06:58.557Z,100604.90
2019-01-06T10:07:51.919Z,100599.79
2019-01-06T10:09:02.131Z,100604.43
2019-01-06T10:10:12.109Z,100604.25
2019-01-06T10:11:09.990Z,100603.78
2019-01-06T10:12:20.708Z,100602.09
2019-01-06T10:13:14.109Z,100608.66
2019-01-06T10:14:07.415Z,100601.16
2019-01-06T10:15:17.089Z,100602.92
2019-01-06T10:16:10.390Z,100596.78
2019-01-06T10:17:11.177Z,100599.58
2019-01-06T10:18:15.035Z,100601.03
2019-01-06T10:19:16.036Z,100599.75
2019-01-06T10:20:16.797Z,100605.01
2019-01-06T10:21:11.746Z,100610.44
2019-01-06T10:22:04.925Z,100612.69
2019-01-06T10:22:56.175Z,100608.22
2019-01-06T10:23:51.182Z,100608.95
2019-01-06T10:24:51.659Z,100615.27
2019-01-06T10:25:59.302Z,100615.59
2019-01-06T10:27:06.530Z,100615.64
2019-01-06T10:28:19.528Z,100620.25
2019-01-06T10:29:20.676Z,100619.70
2019-01-06T10:30:23.728Z,100619.94
2019-01-06T10:31:21.546Z,100630.56
2019-01-06T10:32:25.823Z,100631.68
2019-01-06T10:33:30.187Z,100632.80
2019-01-06T10:34:21.486Z,100637.75
2019-01-06T10:35:14.121Z,100638.08
2019-01-06T10:36:07.458Z,100640.07
2019-01-06T10:37:01.010Z,100647.14
2019-01-06T10:37:54.508Z,100654.73
2019-01-06T10:39:04.208Z,100659.37
2019-01-06T10:39:59.330Z,100661.05
2019-01-06T10:40:54.381Z,100660.25
2019-01-06T10:41:58.147Z,100661.60
2019-01-06T10:42:56.008Z,100662.95
2019-01-06T10:43:58.691Z,100665.67
2019-01-06T10:45:02.646Z,100666.47
2019-01-06T10:45:57.713Z,100666.16
2019-01-06T10:46:55.866Z,100668.02
2019-01-06T10:47:49.247Z,100667.75
2019-01-06T10:48:46.987Z,100668.58
2019-01-06T10:51:08.008Z,100668.02
2019-01-06T10:52:01.313Z,100667.52
2019-01-06T10:52:54.417Z,100673.50
2019-01-06T10:53:51.352Z,100673.02
2019-01-06T10:55:01.241Z,100673.58
2019-01-06T10:55:59.063Z,100678.77
2019-01-06T10:56:52.227Z,100675.58
2019-01-06T10:57:45.534Z,100675.89
2019-01-06T10:58:48.493Z,100676.69
2019-01-06T10:59:42.145Z,100679.16
2019-01-06T11:00:38.657Z,100680.28
2019-01-06T11:01:32.103Z,100680.04
2019-01-06T11:02:29.868Z,100685.47
2019-01-06T11:03:27.871Z,100689.86
2019-01-06T11:04:31.854Z,100690.42
2019-01-06T11:05:25.162Z,100689.94
2019-01-06T11:06:18.574Z,100688.09
2019-01-06T11:07:12.815Z,100691.93
2019-01-06T11:08:13.177Z,100695.76
2019-01-06T11:09:06.553Z,100693.67
2019-01-06T11:09:59.886Z,100702.66
2019-01-06T11:11:07.141Z,100699.44
2019-01-06T11:12:17.099Z,100693.28